Caro, MI

10:43 AM EDT on May 25, 2017 (GMT -0400)
Caro

Weather History for KCFS - January, 2013

Change the Weather History Date:

Thursday, January 17, 2013

  Actual Average (KMBS) Record (KMBS)
Temperature  
Mean Temperature 23 °F -  
Max Temperature 32 °F 24 °F 44 °F (2015)
Min Temperature 13 °F 11 °F -6 °F (1997)
Degree Days  
Heating Degree Days 42    
Moisture  
Dew Point 16 °F    
Average Humidity 73    
Maximum Humidity 88    
Minimum Humidity 50    
Precipitation  
Precipitation 0.00 in - - ()
Sea Level Pressure  
Sea Level Pressure 30.14 in    
Wind  
Wind Speed 8 mph (NW)    
Max Wind Speed 21 mph    
Max Gust Speed 29 mph    
Visibility 10 miles    
Events Snow    
Averages and records for this station are not official NWS values.
T = Trace of Precipitation, MM = Missing Value Source: NWS Daily Summary

Daily Weather History Graph

Daily Weather History Graph

Search for Another Location

Airport or City:

Trip Planner

Search our weather history database for the weather conditions in past years. The results will help you decide how hot, cold, wet, or windy it might be!

Date:

Astronomy

Jan. 17, 2013 Rise Set
Actual Time 8:02 AM EST 5:26 PM EST
Civil Twilight 7:30 AM EST 5:57 PM EST
Nautical Twilight 6:55 AM EST 6:32 PM EST
Astronomical Twilight 6:21 AM EST 7:06 PM EST
Moon 10:55 AM EST (1/17) No Moon Set
Length of Visible Light 10h 26m
Length of Day
9h 23m
Waxing Crescent, 37% of the Moon is Illuminated
Jan 17
Waxing Crescent
Jan 18
First Quarter
Jan 26
Full
Feb 3
Last Quarter
Feb 10
New

Hourly Weather History & Observations

Time (EST) Temp. Windchill Dew Point Humidity Pressure Visibility Wind Dir Wind Speed Gust Speed Precip Events Conditions
12:14 AM 32.4 °F 23.5 °F 29.3 °F 88% 29.91 in 10.0 mi West 11.5 mph - N/A   Overcast
12:34 AM 32.0 °F 24.2 °F 28.4 °F 87% 29.92 in 10.0 mi West 9.2 mph - N/A   Overcast
12:55 AM 31.8 °F 23.9 °F 28.4 °F 87% 29.93 in 10.0 mi West 9.2 mph - N/A   Overcast
1:14 AM 32.0 °F 23.0 °F 28.4 °F 87% 29.95 in 10.0 mi West 11.5 mph - N/A   Overcast
1:34 AM 32.0 °F 24.2 °F 28.2 °F 86% 29.96 in 10.0 mi West 9.2 mph - N/A   Overcast
1:55 AM 32.0 °F 23.6 °F 27.9 °F 85% 29.97 in 10.0 mi West 10.4 mph - N/A   Overcast
2:14 AM 31.8 °F 23.3 °F 27.9 °F 85% 29.98 in 10.0 mi NW 10.4 mph - N/A   Overcast
2:34 AM 30.2 °F 22.6 °F 23.7 °F 77% 30.00 in 10.0 mi NNW 8.1 mph - N/A   Overcast
3:14 AM 29.1 °F 22.1 °F 21.2 °F 72% 30.00 in 10.0 mi NNW 6.9 mph - N/A   Overcast
3:35 AM 28.9 °F 22.8 °F 22.1 °F 76% 30.02 in 10.0 mi NNW 5.8 mph - N/A   Overcast
3:55 AM 28.6 °F 23.5 °F 22.1 °F 77% 30.03 in 10.0 mi NNW 4.6 mph - N/A   Overcast
4:35 AM 28.4 °F 21.2 °F 20.5 °F 72% 30.05 in 10.0 mi NNW 6.9 mph - N/A   Overcast
4:54 AM 28.4 °F 20.4 °F 19.8 °F 70% 30.06 in 10.0 mi NNW 8.1 mph - N/A   Overcast
5:14 AM 28.0 °F 20.0 °F 20.7 °F 74% 30.07 in 10.0 mi North 8.1 mph - N/A   Overcast
5:35 AM 27.5 °F 21.1 °F 20.3 °F 74% 30.08 in 10.0 mi NNW 5.8 mph - N/A   Overcast
5:54 AM 27.5 °F 22.2 °F 19.4 °F 72% 30.09 in 10.0 mi NNW 4.6 mph - N/A   Overcast
6:14 AM 27.0 °F 21.6 °F 19.4 °F 73% 30.09 in 10.0 mi North 4.6 mph - N/A   Overcast
6:35 AM 26.4 °F 22.4 °F 19.2 °F 74% 30.10 in 10.0 mi North 3.5 mph - N/A   Overcast
6:54 AM 26.1 °F - 19.4 °F 76% 30.11 in 10.0 mi Calm Calm - N/A   Overcast
7:14 AM 26.4 °F 22.4 °F 19.2 °F 74% 30.12 in 10.0 mi North 3.5 mph - N/A   Overcast
7:35 AM 26.2 °F - 19.2 °F 75% 30.12 in 10.0 mi Calm Calm - N/A   Overcast
7:54 AM 25.5 °F 17.8 °F 18.1 °F 74% 30.14 in 10.0 mi NNE 6.9 mph - N/A   Overcast
8:15 AM 24.8 °F 17.9 °F 18.0 °F 75% 30.14 in 10.0 mi North 5.8 mph - N/A   Overcast
8:35 AM 24.6 °F 18.8 °F 18.1 °F 76% 30.15 in 10.0 mi NNE 4.6 mph - N/A   Overcast
8:54 AM 24.6 °F 16.7 °F 18.1 °F 76% 30.16 in 10.0 mi North 6.9 mph - N/A   Overcast
9:15 AM 24.4 °F 17.5 °F 18.0 °F 76% 30.17 in 10.0 mi North 5.8 mph - N/A   Overcast
9:35 AM 24.3 °F 18.4 °F 17.1 °F 74% 30.18 in 10.0 mi NNE 4.6 mph - N/A   Overcast
9:54 AM 24.4 °F 18.6 °F 16.9 °F 73% 30.18 in 10.0 mi NNE 4.6 mph - N/A   Overcast
10:15 AM 25.2 °F 18.3 °F 17.1 °F 71% 30.17 in 10.0 mi NNE 5.8 mph - N/A   Scattered Clouds
10:34 AM 25.5 °F 17.8 °F 16.9 °F 70% 30.17 in 10.0 mi North 6.9 mph - N/A   Clear
10:54 AM 25.7 °F - 16.5 °F 68% 30.17 in 10.0 mi Calm Calm - N/A   Clear
11:15 AM 25.7 °F 19.0 °F 17.2 °F 70% 30.17 in 10.0 mi North 5.8 mph - N/A   Clear
11:34 AM 26.4 °F 18.0 °F 18.1 °F 71% 30.17 in 10.0 mi North 8.1 mph - N/A   Clear
11:54 AM 26.2 °F 17.8 °F 18.3 °F 72% 30.16 in 10.0 mi North 8.1 mph - N/A   Scattered Clouds
12:14 PM 26.1 °F 18.4 °F 17.6 °F 70% 30.16 in 10.0 mi NNE 6.9 mph - N/A   Scattered Clouds
12:34 PM 26.1 °F 20.5 °F 17.8 °F 71% 30.15 in 10.0 mi NNE 4.6 mph - N/A   Mostly Cloudy
12:55 PM 26.2 °F 20.7 °F 17.4 °F 69% 30.14 in 10.0 mi North 4.6 mph - N/A   Mostly Cloudy
1:14 PM 26.4 °F 17.3 °F 18.7 °F 73% 30.14 in 10.0 mi North 9.2 mph - N/A   Overcast
1:34 PM 25.3 °F 15.3 °F 19.8 °F 79% 30.13 in 10.0 mi North 10.4 mph - N/A Snow Light Snow
1:55 PM 24.6 °F 14.4 °F 19.2 °F 80% 30.13 in 10.0 mi North 10.4 mph - N/A   Overcast
2:14 PM 24.6 °F 15.1 °F 19.2 °F 80% 30.14 in 10.0 mi NNW 9.2 mph - N/A   Overcast
2:34 PM 23.9 °F 14.2 °F 18.9 °F 81% 30.14 in 10.0 mi NNW 9.2 mph - N/A   Mostly Cloudy
2:55 PM 23.0 °F 13.9 °F 18.7 °F 84% 30.14 in 10.0 mi NNW 8.1 mph - N/A   Mostly Cloudy
3:14 PM 22.6 °F 14.3 °F 18.1 °F 83% 30.14 in 10.0 mi NNW 6.9 mph - N/A   Overcast
3:35 PM 22.5 °F 16.3 °F 17.2 °F 80% 30.14 in 10.0 mi NNW 4.6 mph - N/A   Overcast
3:55 PM 22.3 °F 14.9 °F 16.5 °F 79% 30.14 in 10.0 mi North 5.8 mph - N/A   Scattered Clouds
4:14 PM 22.3 °F 14.9 °F 16.5 °F 79% 30.14 in 10.0 mi NNW 5.8 mph - N/A   Scattered Clouds
4:35 PM 22.5 °F 17.8 °F 16.7 °F 79% 30.15 in 10.0 mi NNW 3.5 mph - N/A   Overcast
4:54 PM 22.6 °F 16.5 °F 16.5 °F 77% 30.15 in 10.0 mi WNW 4.6 mph - N/A   Overcast
5:14 PM 23.0 °F 18.4 °F 17.4 °F 79% 30.16 in 7.0 mi WNW 3.5 mph - N/A Snow Light Snow
5:35 PM 23.2 °F 13.3 °F 19.2 °F 85% 30.17 in 2.5 mi WNW 9.2 mph - N/A Snow Light Snow
5:54 PM 21.9 °F 11.0 °F 16.2 °F 78% 30.18 in 5.0 mi WNW 10.4 mph - N/A Snow Light Snow
6:14 PM 21.2 °F 8.3 °F 15.1 °F 77% 30.20 in 10.0 mi WNW 13.8 mph 21.9 mph N/A   Mostly Cloudy
6:35 PM 21.4 °F 5.8 °F 12.7 °F 69% 30.22 in 10.0 mi NW 20.7 mph 27.6 mph N/A   Overcast
6:54 PM 19.9 °F 4.3 °F 7.9 °F 60% 30.23 in 10.0 mi NW 19.6 mph 27.6 mph N/A   Scattered Clouds
7:14 PM 18.5 °F 4.3 °F 10.4 °F 71% 30.24 in 10.0 mi NW 15.0 mph 24.2 mph N/A   Scattered Clouds
7:35 PM 18.9 °F 3.8 °F 3.9 °F 52% 30.25 in 10.0 mi NW 17.3 mph 28.8 mph N/A   Mostly Cloudy
7:54 PM 18.0 °F 3.6 °F 2.3 °F 50% 30.27 in 10.0 mi NW 15.0 mph 25.3 mph N/A   Scattered Clouds
8:15 PM 17.6 °F 3.7 °F 2.3 °F 51% 30.27 in 10.0 mi WNW 13.8 mph 19.6 mph N/A   Scattered Clouds
8:35 PM 17.4 °F 2.9 °F 3.2 °F 54% 30.28 in 10.0 mi WNW 15.0 mph 24.2 mph N/A   Scattered Clouds
8:54 PM 16.7 °F 3.8 °F 4.3 °F 58% 30.28 in 10.0 mi West 11.5 mph 17.3 mph N/A   Scattered Clouds
9:15 PM 16.5 °F 2.4 °F 4.1 °F 58% 30.28 in 10.0 mi West 13.8 mph 18.4 mph N/A   Mostly Cloudy
9:54 PM 15.8 °F 5.1 °F 5.5 °F 64% 30.29 in 10.0 mi West 8.1 mph - N/A   Overcast
10:15 PM 15.4 °F 3.8 °F 5.0 °F 63% 30.28 in 10.0 mi WNW 9.2 mph - N/A   Scattered Clouds
10:34 PM 14.9 °F 4.0 °F 5.2 °F 65% 30.28 in 10.0 mi WNW 8.1 mph - N/A   Scattered Clouds
10:54 PM 14.5 °F 4.6 °F 5.5 °F 68% 30.29 in 10.0 mi West 6.9 mph - N/A   Scattered Clouds
11:15 PM 14.9 °F 5.0 °F 5.4 °F 66% 30.28 in 10.0 mi WNW 6.9 mph - N/A   Clear
11:34 PM 14.5 °F 4.6 °F 5.2 °F 66% 30.28 in 10.0 mi WNW 6.9 mph - N/A   Clear
11:54 PM 13.8 °F 4.9 °F 5.4 °F 69% 30.29 in 10.0 mi West 5.8 mph - N/A   Scattered Clouds